createdAt,value
2022-08-16T00:02:12.860Z,6.38
2022-08-16T00:05:16.068Z,6.35
2022-08-16T00:08:35.738Z,6.10
2022-08-16T00:11:40.901Z,6.90
2022-08-16T00:14:42.668Z,6.60
2022-08-16T00:17:56.826Z,6.07
2022-08-16T00:20:59.657Z,6.13
2022-08-16T00:24:04.688Z,6.60
2022-08-16T00:27:08.484Z,7.00
2022-08-16T00:30:19.426Z,6.95
2022-08-16T00:36:32.862Z,6.03
2022-08-16T00:39:34.953Z,6.00
2022-08-16T00:42:36.935Z,6.25
2022-08-16T00:46:22.317Z,5.88
2022-08-16T00:49:44.400Z,6.15
2022-08-16T00:52:51.098Z,6.22
2022-08-16T00:55:58.562Z,7.68
2022-08-16T00:59:01.332Z,6.75
2022-08-16T01:02:31.257Z,6.70
2022-08-16T01:05:29.878Z,7.50
2022-08-16T01:08:35.918Z,7.10
2022-08-16T01:11:54.040Z,6.80
2022-08-16T01:15:00.210Z,7.20
2022-08-16T01:18:05.028Z,6.88
2022-08-16T01:21:44.605Z,7.18
2022-08-16T01:24:55.276Z,6.97
2022-08-16T01:28:03.419Z,6.72
2022-08-16T01:31:08.392Z,6.75
2022-08-16T01:34:25.040Z,7.28
2022-08-16T01:37:35.895Z,6.95
2022-08-16T01:40:39.116Z,7.25
2022-08-16T01:43:44.306Z,7.20
2022-08-16T01:46:48.763Z,7.80
2022-08-16T01:50:41.965Z,7.95
2022-08-16T01:53:16.855Z,7.80
2022-08-16T01:59:39.293Z,7.78
2022-08-16T02:02:43.469Z,7.40
2022-08-16T02:05:51.758Z,7.45
2022-08-16T02:08:58.022Z,7.10
2022-08-16T02:12:40.115Z,7.43
2022-08-16T02:15:27.073Z,7.90
2022-08-16T02:18:30.842Z,6.97
2022-08-16T02:21:34.184Z,7.72
2022-08-16T02:24:42.124Z,7.80
2022-08-16T02:27:50.786Z,7.72
2022-08-16T02:30:57.587Z,7.50
2022-08-16T02:33:59.246Z,7.07
2022-08-16T02:37:13.315Z,7.97
2022-08-16T02:40:24.847Z,7.72
2022-08-16T02:43:30.282Z,7.40
2022-08-16T02:46:36.382Z,7.70
2022-08-16T02:50:03.222Z,6.72
2022-08-16T02:53:02.083Z,6.95
2022-08-16T02:56:05.722Z,8.13
2022-08-16T02:59:14.357Z,6.88
2022-08-16T03:02:17.813Z,8.15
2022-08-16T03:05:20.595Z,7.82
2022-08-16T03:08:51.124Z,7.32
2022-08-16T03:11:46.127Z,6.90
2022-08-16T03:14:48.273Z,7.15
2022-08-16T03:17:54.307Z,6.47
2022-08-16T03:21:02.172Z,6.78
2022-08-16T03:24:28.638Z,6.65
2022-08-16T03:27:34.060Z,6.60
2022-08-16T03:30:39.313Z,7.05
2022-08-16T03:33:45.395Z,7.30
2022-08-16T03:36:47.660Z,7.10
2022-08-16T03:39:49.590Z,6.78
2022-08-16T03:43:19.024Z,7.38
2022-08-16T03:46:44.566Z,7.25
2022-08-16T03:49:51.612Z,6.90
2022-08-16T03:53:01.362Z,6.70
2022-08-16T03:56:19.660Z,7.03
2022-08-16T03:59:22.841Z,6.63
2022-08-16T04:02:31.268Z,7.35
2022-08-16T04:05:40.764Z,8.77
2022-08-16T04:08:48.141Z,8.82
2022-08-16T04:11:49.966Z,8.60
2022-08-16T04:14:54.473Z,9.05
2022-08-16T04:17:58.085Z,7.70
2022-08-16T04:21:00.352Z,7.53
2022-08-16T04:24:08.085Z,8.35
2022-08-16T04:27:10.895Z,7.88
2022-08-16T04:30:31.943Z,7.50
2022-08-16T04:36:37.071Z,6.43
2022-08-16T04:39:46.723Z,5.95
2022-08-16T04:42:51.746Z,6.28
2022-08-16T04:46:00.433Z,5.70
2022-08-16T04:49:04.776Z,6.50
2022-08-16T04:52:07.226Z,6.57
2022-08-16T04:55:37.559Z,6.75
2022-08-16T04:58:44.033Z,6.32
2022-08-16T05:01:59.235Z,6.15
2022-08-16T05:05:02.128Z,6.03
2022-08-16T05:08:29.891Z,5.80
2022-08-16T05:11:32.079Z,6.93
2022-08-16T05:14:46.115Z,5.93
2022-08-16T05:17:58.668Z,6.03
2022-08-16T05:21:11.004Z,7.22
2022-08-16T05:24:24.650Z,6.65
2022-08-16T05:27:29.047Z,6.88
2022-08-16T05:30:35.521Z,7.20
2022-08-16T05:33:43.788Z,6.80
2022-08-16T05:36:57.491Z,6.45
2022-08-16T05:40:13.238Z,6.55
2022-08-16T05:43:16.751Z,7.10
2022-08-16T05:46:29.747Z,7.55
2022-08-16T05:49:40.292Z,7.00
2022-08-16T05:52:46.067Z,7.60
2022-08-16T05:55:48.604Z,7.65
2022-08-16T05:58:51.102Z,7.13
2022-08-16T06:01:54.603Z,8.00
2022-08-16T06:05:03.053Z,7.82
2022-08-16T06:08:05.981Z,7.88
2022-08-16T06:11:13.925Z,8.20
2022-08-16T06:14:21.968Z,7.10
2022-08-16T06:17:24.197Z,6.78
2022-08-16T06:20:55.731Z,7.45
2022-08-16T06:24:01.453Z,8.27
2022-08-16T06:27:23.755Z,8.70
2022-08-16T06:30:28.637Z,8.18
2022-08-16T06:33:41.564Z,7.28
2022-08-16T06:36:46.562Z,7.40
2022-08-16T06:43:03.459Z,7.30
2022-08-16T06:46:31.814Z,6.95
2022-08-16T06:49:37.922Z,6.82
2022-08-16T06:53:08.609Z,6.20
2022-08-16T06:56:14.176Z,6.22
2022-08-16T06:59:52.710Z,5.60
2022-08-16T07:03:26.864Z,5.10
2022-08-16T07:06:31.482Z,5.45
2022-08-16T07:09:36.310Z,5.47
2022-08-16T07:13:03.443Z,5.63
2022-08-16T07:16:01.491Z,5.75
2022-08-16T07:19:04.293Z,5.63
2022-08-16T07:22:38.876Z,5.30
2022-08-16T07:25:34.629Z,5.40
2022-08-16T07:28:42.779Z,4.60
2022-08-16T07:31:47.472Z,5.03
2022-08-16T07:34:52.477Z,5.13
2022-08-16T07:37:54.575Z,5.05
2022-08-16T07:41:14.157Z,4.57
2022-08-16T07:44:21.663Z,4.80
2022-08-16T07:47:31.287Z,4.82
2022-08-16T07:50:55.809Z,5.45
2022-08-16T07:54:02.402Z,4.95
2022-08-16T07:57:16.376Z,5.07
2022-08-16T08:00:25.243Z,5.43
2022-08-16T08:03:35.990Z,5.75
2022-08-16T08:06:44.778Z,5.20
2022-08-16T08:09:53.014Z,5.70
2022-08-16T08:12:55.279Z,5.40
2022-08-16T08:16:01.414Z,5.55
2022-08-16T08:19:05.272Z,5.00
2022-08-16T08:22:09.941Z,5.10
2022-08-16T08:25:53.471Z,5.30
2022-08-16T08:28:54.575Z,5.70
2022-08-16T08:32:59.990Z,4.97
2022-08-16T08:35:28.634Z,4.75
2022-08-16T08:38:45.110Z,5.00
2022-08-16T08:41:52.537Z,5.15
2022-08-16T08:44:58.963Z,4.93
2022-08-16T08:48:00.799Z,5.18
2022-08-16T08:51:09.541Z,4.63
2022-08-16T08:54:33.192Z,4.40
2022-08-16T08:57:35.654Z,4.15
2022-08-16T09:01:01.543Z,4.40
2022-08-16T09:04:06.368Z,4.63
2022-08-16T09:07:11.822Z,4.30
2022-08-16T09:10:20.314Z,4.20
2022-08-16T09:13:24.903Z,4.05
2022-08-16T09:17:01.772Z,4.15
2022-08-16T09:19:52.635Z,4.35
2022-08-16T09:22:59.180Z,4.18
2022-08-16T09:26:44.638Z,3.97
2022-08-16T09:29:45.574Z,4.38
2022-08-16T09:32:51.017Z,4.03
2022-08-16T09:35:54.471Z,4.40
2022-08-16T09:38:59.767Z,4.53
2022-08-16T09:42:02.936Z,4.72
2022-08-16T09:45:11.993Z,4.78
2022-08-16T09:48:44.146Z,4.35
2022-08-16T09:51:42.880Z,4.55
2022-08-16T09:54:45.306Z,4.57
2022-08-16T09:57:52.721Z,4.65
2022-08-16T10:00:55.436Z,4.20
2022-08-16T10:04:02.752Z,3.85
2022-08-16T10:07:14.745Z,4.50
2022-08-16T10:10:30.970Z,4.55
2022-08-16T10:13:39.604Z,3.83
2022-08-16T10:16:48.850Z,3.50
2022-08-16T10:19:52.987Z,3.53
2022-08-16T10:23:03.726Z,5.50
2022-08-16T10:27:16.843Z,4.38
2022-08-16T10:30:01.463Z,4.32
2022-08-16T10:32:51.952Z,4.03
2022-08-16T10:35:55.418Z,3.88
2022-08-16T10:39:02.820Z,4.18
2022-08-16T10:42:07.020Z,4.50
2022-08-16T10:45:10.319Z,4.60
2022-08-16T10:48:27.782Z,4.20
2022-08-16T10:51:34.193Z,4.85
2022-08-16T10:55:40.987Z,3.75
2022-08-16T10:58:12.003Z,4.22
2022-08-16T11:01:43.156Z,4.32
2022-08-16T11:08:05.448Z,3.92
2022-08-16T11:11:11.817Z,4.03
2022-08-16T11:14:20.722Z,3.97
2022-08-16T11:17:22.676Z,4.10
2022-08-16T11:20:41.309Z,4.13
2022-08-16T11:23:58.183Z,4.47
2022-08-16T11:30:38.556Z,4.50
2022-08-16T11:33:56.565Z,4.07
2022-08-16T11:37:01.238Z,3.83
2022-08-16T11:40:07.180Z,3.78
2022-08-16T11:43:12.257Z,3.75
2022-08-16T11:46:44.521Z,3.60
2022-08-16T11:49:39.579Z,4.60
2022-08-16T11:52:46.415Z,4.03
2022-08-16T11:55:54.458Z,4.22
2022-08-16T11:58:57.304Z,4.30
2022-08-16T12:02:04.451Z,4.07
2022-08-16T12:05:22.757Z,4.35
2022-08-16T12:08:27.090Z,4.47
2022-08-16T12:11:31.434Z,4.65
2022-08-16T12:14:35.529Z,4.30
2022-08-16T12:17:40.435Z,4.00
2022-08-16T12:20:45.711Z,3.97
2022-08-16T12:23:47.797Z,4.15
2022-08-16T12:26:50.950Z,4.25
2022-08-16T12:29:54.061Z,3.95
2022-08-16T12:32:58.476Z,3.90
2022-08-16T12:36:00.812Z,4.53
2022-08-16T12:39:04.862Z,4.05
2022-08-16T12:42:15.238Z,4.38
2022-08-16T12:45:21.642Z,4.90
2022-08-16T12:48:46.861Z,4.53
2022-08-16T12:51:59.519Z,4.28
2022-08-16T12:55:03.878Z,4.30
2022-08-16T12:58:14.214Z,4.15
2022-08-16T13:01:31.671Z,4.03
2022-08-16T13:04:35.496Z,4.47
2022-08-16T13:07:42.541Z,4.10
2022-08-16T13:10:54.958Z,4.07
2022-08-16T13:13:56.860Z,4.63
2022-08-16T13:17:06.877Z,4.50
2022-08-16T13:20:16.802Z,4.30
2022-08-16T13:23:19.385Z,4.17
2022-08-16T13:26:21.385Z,4.07
2022-08-16T13:29:23.712Z,3.97
2022-08-16T13:32:39.461Z,4.13
2022-08-16T13:35:45.910Z,4.18
2022-08-16T13:39:00.237Z,4.45
2022-08-16T13:42:03.165Z,4.13
2022-08-16T13:45:08.910Z,4.13
2022-08-16T13:48:11.189Z,4.40
2022-08-16T13:51:24.517Z,4.05
2022-08-16T13:54:29.919Z,4.20
2022-08-16T13:58:35.231Z,4.03
2022-08-16T14:00:55.938Z,4.03
2022-08-16T14:04:01.311Z,3.95
2022-08-16T14:07:06.789Z,4.20
2022-08-16T14:10:13.019Z,4.13
2022-08-16T14:13:20.860Z,4.55
2022-08-16T14:16:33.770Z,4.28
2022-08-16T14:19:36.638Z,4.38
2022-08-16T14:22:42.437Z,3.70
2022-08-16T14:25:54.166Z,4.85
2022-08-16T14:29:01.267Z,4.00
2022-08-16T14:32:08.129Z,3.70
2022-08-16T14:35:21.452Z,4.60
2022-08-16T14:38:39.172Z,4.53
2022-08-16T14:41:41.844Z,3.97
2022-08-16T14:44:44.710Z,4.30
2022-08-16T14:47:49.649Z,3.80
2022-08-16T14:50:52.250Z,3.90
2022-08-16T14:53:54.252Z,3.80
2022-08-16T14:56:56.377Z,3.30
2022-08-16T15:00:06.228Z,3.15
2022-08-16T15:03:10.727Z,3.78
2022-08-16T15:06:14.370Z,3.20
2022-08-16T15:09:16.894Z,3.33
2022-08-16T15:12:27.052Z,3.40
2022-08-16T15:15:33.916Z,3.05
2022-08-16T15:18:37.408Z,3.80
2022-08-16T15:21:41.300Z,3.90
2022-08-16T15:24:43.627Z,3.72
2022-08-16T15:27:55.097Z,3.67
2022-08-16T15:31:00.999Z,3.55
2022-08-16T15:34:05.726Z,3.58
2022-08-16T15:37:07.935Z,3.40
2022-08-16T15:40:16.479Z,3.30
2022-08-16T15:43:39.826Z,3.63
2022-08-16T15:46:54.946Z,3.45
2022-08-16T15:49:59.048Z,3.67
2022-08-16T15:53:12.400Z,3.72
2022-08-16T15:56:14.809Z,3.35
2022-08-16T15:59:17.562Z,3.10
2022-08-16T16:02:27.602Z,3.58
2022-08-16T16:05:32.338Z,3.22
2022-08-16T16:08:35.172Z,3.63
2022-08-16T16:11:41.338Z,3.42
2022-08-16T16:14:44.529Z,3.35
2022-08-16T16:17:50.845Z,3.38
2022-08-16T16:21:00.309Z,3.65
2022-08-16T16:24:21.491Z,3.70
2022-08-16T16:27:25.335Z,3.30
2022-08-16T16:30:32.821Z,3.58
2022-08-16T16:33:44.669Z,3.47
2022-08-16T16:36:48.557Z,3.17
2022-08-16T16:39:51.815Z,3.50
2022-08-16T16:42:53.970Z,3.60
2022-08-16T16:45:58.388Z,3.22
2022-08-16T16:49:03.192Z,3.63
2022-08-16T16:52:08.038Z,3.47
2022-08-16T16:55:10.749Z,3.20
2022-08-16T16:58:36.502Z,3.25
2022-08-16T17:01:57.586Z,3.22
2022-08-16T17:05:12.684Z,3.30
2022-08-16T17:08:18.353Z,3.35
2022-08-16T17:11:21.275Z,3.30
2022-08-16T17:14:32.723Z,3.53
2022-08-16T17:17:59.298Z,3.35
2022-08-16T17:20:59.532Z,3.13
2022-08-16T17:24:01.934Z,3.17
2022-08-16T17:27:32.410Z,3.80
2022-08-16T17:30:45.499Z,3.50
2022-08-16T17:33:54.660Z,3.70
2022-08-16T17:36:58.893Z,3.60
2022-08-16T17:40:03.916Z,3.20
2022-08-16T17:43:27.896Z,3.80
2022-08-16T17:46:50.954Z,3.25
2022-08-16T17:49:52.162Z,3.30
2022-08-16T17:52:55.791Z,3.53
2022-08-16T17:55:57.840Z,3.80
2022-08-16T17:58:59.901Z,3.58
2022-08-16T18:02:42.112Z,4.13
2022-08-16T18:05:30.492Z,4.38
2022-08-16T18:08:32.542Z,3.55
2022-08-16T18:11:41.024Z,4.30
2022-08-16T18:14:52.235Z,4.05
2022-08-16T18:17:55.489Z,3.83
2022-08-16T18:21:16.461Z,3.53
2022-08-16T18:24:19.162Z,3.35
2022-08-16T18:27:26.176Z,3.80
2022-08-16T18:30:29.656Z,3.70
2022-08-16T18:33:31.932Z,4.05
2022-08-16T18:36:34.677Z,3.72
2022-08-16T18:39:37.125Z,3.90
2022-08-16T18:42:39.253Z,4.00
2022-08-16T18:45:43.544Z,4.15
2022-08-16T18:48:45.205Z,4.80
2022-08-16T18:51:47.399Z,3.72
2022-08-16T18:55:01.685Z,4.15
2022-08-16T18:58:06.024Z,4.30
2022-08-16T19:01:10.591Z,4.32
2022-08-16T19:04:47.842Z,4.25
2022-08-16T19:07:36.599Z,4.57
2022-08-16T19:10:40.649Z,4.72
2022-08-16T19:13:45.983Z,4.30
2022-08-16T19:16:47.724Z,3.75
2022-08-16T19:19:49.530Z,4.50
2022-08-16T19:23:05.030Z,4.13
2022-08-16T19:26:24.601Z,4.72
2022-08-16T19:29:28.185Z,3.95
2022-08-16T19:32:29.978Z,4.88
2022-08-16T19:35:32.080Z,4.65
2022-08-16T19:38:34.065Z,4.63
2022-08-16T19:41:38.221Z,4.25
2022-08-16T19:44:41.624Z,5.63
2022-08-16T19:47:43.425Z,4.50
2022-08-16T19:50:45.333Z,4.50
2022-08-16T19:53:47.161Z,4.50
2022-08-16T19:56:49.088Z,4.63
2022-08-16T19:59:52.155Z,4.85
2022-08-16T20:02:55.061Z,4.28
2022-08-16T20:05:57.093Z,4.90
2022-08-16T20:08:59.107Z,4.32
2022-08-16T20:12:09.012Z,4.40
2022-08-16T20:15:17.336Z,4.43
2022-08-16T20:18:25.482Z,4.43
2022-08-16T20:21:28.510Z,4.90
2022-08-16T20:24:35.076Z,5.03
2022-08-16T20:27:38.155Z,4.30
2022-08-16T20:30:40.323Z,4.50
2022-08-16T20:33:42.403Z,4.70
2022-08-16T20:36:47.328Z,4.82
2022-08-16T20:39:52.522Z,4.70
2022-08-16T20:43:15.835Z,5.07
2022-08-16T20:46:17.623Z,5.10
2022-08-16T20:49:19.406Z,4.90
2022-08-16T20:52:24.026Z,4.72
2022-08-16T20:55:28.764Z,5.15
2022-08-16T20:58:31.080Z,4.70
2022-08-16T21:01:46.605Z,4.50
2022-08-16T21:04:51.824Z,5.38
2022-08-16T21:07:55.802Z,5.10
2022-08-16T21:10:58.302Z,6.07
2022-08-16T21:14:01.139Z,5.68
2022-08-16T21:17:05.363Z,5.10
2022-08-16T21:20:08.461Z,5.53
2022-08-16T21:23:11.338Z,5.82
2022-08-16T21:26:13.428Z,5.78
2022-08-16T21:29:16.198Z,5.82
2022-08-16T21:32:35.818Z,5.25
2022-08-16T21:35:47.815Z,4.90
2022-08-16T21:38:49.668Z,4.80
2022-08-16T21:41:51.606Z,6.22
2022-08-16T21:44:54.358Z,5.97
2022-08-16T21:47:56.244Z,5.82
2022-08-16T21:50:58.336Z,6.50
2022-08-16T21:54:00.922Z,6.50
2022-08-16T21:57:05.585Z,6.53
2022-08-16T22:00:14.425Z,7.00
2022-08-16T22:03:16.787Z,6.63
2022-08-16T22:06:19.125Z,6.40
2022-08-16T22:09:21.069Z,6.22
2022-08-16T22:12:27.576Z,6.15
2022-08-16T22:15:29.439Z,5.78
2022-08-16T22:18:31.256Z,5.85
2022-08-16T22:21:34.718Z,5.72
2022-08-16T22:24:37.011Z,5.97
2022-08-16T22:27:39.067Z,5.68
2022-08-16T22:30:41.056Z,5.00
2022-08-16T22:33:43.046Z,5.20
2022-08-16T22:36:47.525Z,5.35
2022-08-16T22:39:49.269Z,5.25
2022-08-16T22:42:52.557Z,5.38
2022-08-16T22:45:54.534Z,5.85
2022-08-16T22:48:56.344Z,5.43
2022-08-16T22:52:09.401Z,5.05
2022-08-16T22:55:11.538Z,5.97
2022-08-16T22:58:14.499Z,6.00
2022-08-16T23:01:17.962Z,5.78
2022-08-16T23:04:19.840Z,5.47
2022-08-16T23:07:21.787Z,5.18
2022-08-16T23:10:24.276Z,5.20
2022-08-16T23:13:27.004Z,5.90
2022-08-16T23:16:33.459Z,6.00
2022-08-16T23:19:36.314Z,5.65
2022-08-16T23:23:20.519Z,5.82
2022-08-16T23:26:46.735Z,6.25
2022-08-16T23:29:38.411Z,5.95
2022-08-16T23:32:52.606Z,5.78
2022-08-16T23:35:57.385Z,5.93
2022-08-16T23:38:59.364Z,5.90
2022-08-16T23:42:01.940Z,5.53
2022-08-16T23:45:06.197Z,5.47
2022-08-16T23:48:11.975Z,5.70
2022-08-16T23:51:14.709Z,5.05
2022-08-16T23:54:16.641Z,5.30
2022-08-16T23:57:18.500Z,5.80
